Time;durP1;ratioP1;P1;durP2;ratioP2;P2;SDS_P1;SDS_P2;PMS_P1;PMS_P2;Temp;Humidity;BMP_temperature;BMP_pressure;BME280_temperature;BME280_humidity;BME280_pressure;Samples;Min_cycle;Max_cycle;Signal;HPM_P1;HPM_P2
2021/12/09 00:01:10;;;;;;;;;5.00;2.00;;;;;8.57;70.90;100198.47;5102990;27;63608;-77
2021/12/09 00:03:40;;;;;;;;;6.00;2.00;;;;;8.58;70.44;100205.47;5103959;27;61920;-77
2021/12/09 00:06:07;;;;;;;;;1.25;1.00;;;;;8.58;70.50;100205.47;5105361;27;61901;-77
2021/12/09 00:08:33;;;;;;;;;2.50;1.00;;;;;8.55;71.11;100201.84;5106118;27;61953;-77
2021/12/09 00:11:04;;;;;;;;;2.00;2.00;;;;;8.57;70.88;100201.09;5104167;27;63012;-76
2021/12/09 00:13:30;;;;;;;;;1.00;1.00;;;;;8.57;70.85;100200.19;5105753;27;61823;-77
2021/12/09 00:15:57;;;;;;;;;4.00;1.00;;;;;8.55;70.64;100201.84;5103781;27;62357;-77
2021/12/09 00:18:24;;;;;;;;;1.00;1.00;;;;;8.48;71.09;100192.81;5105991;27;62043;-77
2021/12/09 00:20:49;;;;;;;;;2.50;1.00;;;;;8.52;70.76;100188.63;5103841;27;62077;-77
2021/12/09 00:23:15;;;;;;;;;2.00;2.00;;;;;8.48;70.80;100191.94;5105524;27;61956;-77
2021/12/09 00:25:41;;;;;;;;;1.50;1.50;;;;;8.46;70.94;100194.50;5105475;27;62014;-76
2021/12/09 00:28:07;;;;;;;;;3.00;1.25;;;;;8.42;71.00;100192.59;5104373;27;62087;-77
2021/12/09 00:30:35;;;;;;;;;0.00;0.00;;;;;8.39;71.03;100195.91;5103104;27;63587;-77
2021/12/09 00:33:04;;;;;;;;;0.25;0.25;;;;;8.36;71.78;100200.13;5104908;27;61824;-76
2021/12/09 00:35:41;;;;;;;;;2.50;1.00;;;;;8.35;71.65;100199.22;5103612;27;61957;-76
2021/12/09 00:38:09;;;;;;;;;1.75;0.25;;;;;8.34;71.53;100197.44;5105572;27;62307;-77
2021/12/09 00:40:35;;;;;;;;;3.00;1.50;;;;;8.36;71.41;100207.97;5101508;27;63791;-76
2021/12/09 00:43:01;;;;;;;;;1.25;1.00;;;;;8.37;71.38;100212.34;5104768;27;62163;-77
2021/12/09 00:45:26;;;;;;;;;2.00;1.00;;;;;8.33;71.52;100205.22;5104833;27;61766;-77
2021/12/09 00:47:52;;;;;;;;;1.75;1.00;;;;;8.33;71.27;100213.03;5103466;27;62025;-77
2021/12/09 00:50:19;;;;;;;;;4.00;2.00;;;;;8.36;71.52;100221.03;5102804;27;63805;-77
2021/12/09 00:52:46;;;;;;;;;3.00;1.00;;;;;8.35;71.44;100217.50;5103704;27;62032;-77
2021/12/09 00:55:12;;;;;;;;;1.00;1.00;;;;;8.35;72.14;100217.50;5104800;27;62151;-77
2021/12/09 00:57:39;;;;;;;;;1.75;1.00;;;;;8.38;71.95;100222.00;5105076;27;62036;-77
2021/12/09 01:00:14;;;;;;;;;2.50;1.75;;;;;8.30;71.41;100208.59;5103672;27;61874;-76
2021/12/09 01:02:40;;;;;;;;;1.00;1.00;;;;;8.32;72.07;100206.03;5104406;27;61694;-76
2021/12/09 01:05:08;;;;;;;;;2.00;0.75;;;;;8.32;71.96;100206.03;5104704;27;61830;-77
2021/12/09 01:07:35;;;;;;;;;2.75;1.00;;;;;8.42;72.03;100217.81;5103756;27;62202;-76
2021/12/09 01:10:02;;;;;;;;;0.75;0.75;;;;;8.45;71.27;100216.25;5101911;27;63694;-77
2021/12/09 01:12:28;;;;;;;;;2.00;1.00;;;;;8.44;71.58;100213.56;5104857;27;61870;-76
2021/12/09 01:14:53;;;;;;;;;0.00;0.00;;;;;8.44;71.62;100221.41;5104106;27;61904;-77
2021/12/09 01:17:19;;;;;;;;;5.00;1.00;;;;;8.44;71.75;100214.47;5104316;27;61849;-76
2021/12/09 01:19:44;;;;;;;;;4.00;1.25;;;;;8.47;71.36;100226.78;5104009;27;61793;-76
2021/12/09 01:22:10;;;;;;;;;1.00;1.00;;;;;8.48;71.10;100228.56;5104490;27;61957;-77
2021/12/09 01:24:36;;;;;;;;;1.00;1.00;;;;;8.47;71.60;100226.78;5104704;27;61939;-76
2021/12/09 01:27:01;;;;;;;;;3.00;1.00;;;;;8.46;70.83;100230.19;5104253;27;61928;-76
2021/12/09 01:29:35;;;;;;;;;1.00;1.00;;;;;8.52;71.56;100233.97;5102105;27;63714;-77
2021/12/09 01:32:05;;;;;;;;;3.75;1.00;;;;;8.50;71.24;100237.34;5103866;27;61813;-76
2021/12/09 01:34:31;;;;;;;;;1.25;1.25;;;;;8.57;71.14;100234.22;5104603;27;61840;-77
2021/12/09 01:36:58;;;;;;;;;4.25;0.50;;;;;8.59;71.50;100228.22;5103165;27;62294;-76
2021/12/09 01:39:27;;;;;;;;;1.00;1.00;;;;;8.62;71.18;100232.66;5103295;27;61747;-77
2021/12/09 01:41:52;;;;;;;;;1.25;1.00;;;;;8.61;71.18;100230.88;5104073;27;61780;-77
2021/12/09 01:44:18;;;;;;;;;1.00;1.00;;;;;8.66;71.04;100239.81;5102549;27;61890;-77
2021/12/09 01:46:43;;;;;;;;;2.75;1.00;;;;;8.60;71.04;100239.56;5102626;27;62172;-76
2021/12/09 01:49:09;;;;;;;;;1.00;1.00;;;;;8.61;70.98;100246.56;5102976;27;62022;-76
2021/12/09 01:51:35;;;;;;;;;1.00;1.00;;;;;8.66;71.08;100236.31;5103864;27;61848;-76
2021/12/09 01:54:00;;;;;;;;;4.25;0.50;;;;;8.69;71.20;100245.19;5104158;27;61880;-76
2021/12/09 01:56:27;;;;;;;;;3.00;1.00;;;;;8.72;70.75;100245.31;5102723;27;62235;-76
2021/12/09 01:59:02;;;;;;;;;0.00;0.00;;;;;8.72;70.60;100245.31;5119149;27;64919;-76
2021/12/09 02:01:29;;;;;;;;;0.00;0.00;;;;;8.71;70.57;100254.00;5101779;27;61917;-77
2021/12/09 02:03:55;;;;;;;;;4.00;1.75;;;;;8.72;70.07;100258.41;5102737;27;61841;-76
2021/12/09 02:06:21;;;;;;;;;5.00;0.50;;;;;8.71;70.57;100246.13;5104009;27;61737;-76
2021/12/09 02:08:47;;;;;;;;;1.50;0.00;;;;;8.64;69.88;100258.91;5102598;27;62866;-76
2021/12/09 02:11:12;;;;;;;;;1.00;0.00;;;;;8.67;70.40;100259.91;5103573;27;61892;-76
2021/12/09 02:13:38;;;;;;;;;0.25;0.25;;;;;8.70;70.66;100257.44;5102476;27;61992;-77
2021/12/09 02:16:03;;;;;;;;;4.75;1.00;;;;;8.72;71.14;100252.25;5101971;27;61990;-77
2021/12/09 02:18:30;;;;;;;;;1.00;0.25;;;;;8.60;70.58;100253.53;5103182;27;61989;-77
2021/12/09 02:21:17;;;;;;;;;1.50;0.00;;;;;8.75;70.55;100250.69;5103203;27;62007;-77
2021/12/09 02:23:54;;;;;;;;;1.25;1.00;;;;;8.78;70.69;100249.91;5103800;27;62135;-77
2021/12/09 02:26:30;;;;;;;;;0.00;0.00;;;;;8.78;70.54;100256.06;5103823;27;61721;-77
2021/12/09 02:28:57;;;;;;;;;1.00;1.00;;;;;8.78;70.35;100256.06;5102844;27;61943;-76
2021/12/09 02:31:25;;;;;;;;;1.00;0.00;;;;;8.82;70.52;100248.31;5101082;27;62045;-76
2021/12/09 02:33:50;;;;;;;;;1.50;0.25;;;;;8.82;70.78;100251.84;5103483;27;61980;-76
2021/12/09 02:36:16;;;;;;;;;1.25;0.50;;;;;8.85;70.63;100251.06;5102142;27;61870;-77
2021/12/09 02:38:44;;;;;;;;;2.00;0.00;;;;;8.87;70.39;100247.72;5102451;27;63091;-76
2021/12/09 02:41:15;;;;;;;;;2.00;1.00;;;;;8.92;70.51;100248.78;5098315;27;61860;-76
2021/12/09 02:43:42;;;;;;;;;3.00;0.75;;;;;8.91;70.48;100240.84;5082673;27;62066;-76
2021/12/09 02:46:08;;;;;;;;;1.25;0.50;;;;;8.87;70.43;100244.16;5082612;27;61803;-76
2021/12/09 02:48:35;;;;;;;;;4.75;1.00;;;;;8.94;70.40;100247.13;5081955;27;62679;-76
2021/12/09 02:51:03;;;;;;;;;0.00;0.00;;;;;8.96;70.02;100258.56;5082619;28;62028;-77
2021/12/09 02:56:27;;;;;;;;;1.75;1.00;;;;;8.94;70.09;100241.00;4642159;22;62914;-77
2021/12/09 02:58:52;;;;;;;;;1.75;1.00;;;;;8.98;70.62;100256.91;5040940;28;62588;-76
2021/12/09 03:01:26;;;;;;;;;2.25;0.00;;;;;8.93;69.60;100258.44;5050415;28;61889;-77
2021/12/09 03:03:56;;;;;;;;;1.25;0.00;;;;;8.96;70.74;100260.28;5061943;28;61880;-77
2021/12/09 03:06:31;;;;;;;;;1.00;0.00;;;;;9.03;69.70;100262.31;5061417;28;62072;-77
2021/12/09 03:09:01;;;;;;;;;1.00;1.00;;;;;9.05;70.40;100271.13;5062086;28;61769;-77
2021/12/09 03:11:28;;;;;;;;;0.00;0.00;;;;;9.02;70.01;100273.63;5060558;28;61759;-77
2021/12/09 03:13:53;;;;;;;;;0.50;0.00;;;;;9.06;69.43;100267.69;5062585;28;61926;-77
2021/12/09 03:16:22;;;;;;;;;0.00;0.00;;;;;9.07;69.80;100263.34;5077970;28;62049;-77
2021/12/09 03:18:52;;;;;;;;;0.50;0.00;;;;;9.14;69.45;100261.03;5060541;28;63812;-76
2021/12/09 03:21:27;;;;;;;;;0.50;0.00;;;;;9.16;69.50;100262.00;5060889;28;62110;-76
2021/12/09 03:23:54;;;;;;;;;4.00;0.00;;;;;9.17;69.62;100268.16;5062125;28;62027;-77
2021/12/09 03:26:25;;;;;;;;;4.00;0.50;;;;;9.15;69.75;100255.00;5060647;27;62201;-77
2021/12/09 03:28:56;;;;;;;;;0.00;0.00;;;;;9.16;69.38;100261.09;5061712;28;62638;-77
2021/12/09 03:31:21;;;;;;;;;0.00;0.00;;;;;9.18;69.14;100262.94;5062010;28;61864;-76
2021/12/09 03:33:47;;;;;;;;;2.00;1.00;;;;;9.17;69.53;100269.03;5062437;28;62177;-76
2021/12/09 03:36:13;;;;;;;;;0.00;0.00;;;;;9.23;69.50;100270.09;5060860;28;62163;-76
2021/12/09 03:38:40;;;;;;;;;0.50;0.50;;;;;9.26;69.63;100280.72;5061501;28;62838;-76
2021/12/09 03:41:05;;;;;;;;;7.75;0.50;;;;;9.30;69.22;100272.16;5060446;28;61968;-76
2021/12/09 03:43:32;;;;;;;;;0.50;0.00;;;;;9.25;69.98;100271.06;5062035;28;61818;-76
2021/12/09 03:45:58;;;;;;;;;3.00;0.00;;;;;9.26;69.50;100281.63;5060576;28;61843;-76
2021/12/09 03:48:26;;;;;;;;;1.00;0.00;;;;;9.27;69.56;100267.69;5059911;28;63810;-76
2021/12/09 03:50:53;;;;;;;;;0.00;0.00;;;;;9.27;68.89;100274.66;5061706;28;61850;-76
2021/12/09 03:53:18;;;;;;;;;1.00;0.00;;;;;9.35;69.59;100284.59;5061845;28;62016;-76
2021/12/09 03:55:44;;;;;;;;;1.00;1.00;;;;;9.32;69.98;100283.56;5061845;28;61826;-76
2021/12/09 03:58:10;;;;;;;;;2.00;0.50;;;;;9.35;69.32;100281.97;5060874;28;61802;-76
2021/12/09 04:00:35;;;;;;;;;6.00;1.00;;;;;9.30;69.52;100282.66;5060209;28;62060;-76
2021/12/09 04:03:01;;;;;;;;;2.00;1.00;;;;;9.26;69.39;100289.47;5061760;28;61747;-76
2021/12/09 04:05:27;;;;;;;;;0.00;0.00;;;;;9.33;69.60;100293.22;5061864;28;62678;-76
2021/12/09 04:07:53;;;;;;;;;0.00;0.00;;;;;9.35;69.58;100283.72;5061277;28;62237;-76
2021/12/09 04:10:18;;;;;;;;;0.50;0.50;;;;;9.29;69.56;100292.19;5061439;28;61906;-76
2021/12/09 04:12:44;;;;;;;;;0.00;0.00;;;;;9.26;69.81;100285.97;5061697;28;61925;-76
2021/12/09 04:15:11;;;;;;;;;1.25;0.75;;;;;9.30;69.55;100283.53;5060367;28;61850;-77
2021/12/09 04:17:37;;;;;;;;;0.00;0.00;;;;;9.33;69.56;100280.13;5063211;28;64715;-76
2021/12/09 04:20:07;;;;;;;;;1.50;0.00;;;;;9.30;69.30;100293.13;5064475;28;62044;-76
2021/12/09 04:22:33;;;;;;;;;0.00;0.00;;;;;9.29;69.57;100292.19;5063553;28;62183;-78
2021/12/09 04:24:59;;;;;;;;;4.00;1.75;;;;;9.36;69.45;100299.50;5065072;28;61794;-78
2021/12/09 04:27:25;;;;;;;;;0.25;0.25;;;;;9.34;69.51;100298.53;5064001;28;62746;-76
2021/12/09 04:29:52;;;;;;;;;0.00;0.00;;;;;9.31;69.30;100287.94;5064725;28;61981;-78
2021/12/09 04:32:17;;;;;;;;;0.00;0.00;;;;;9.40;68.88;100295.25;5055932;28;61748;-78
2021/12/09 04:34:44;;;;;;;;;1.50;0.00;;;;;9.39;69.25;100296.09;5044848;28;62278;-77
2021/12/09 04:37:10;;;;;;;;;1.00;1.00;;;;;9.35;68.96;100300.31;5043959;28;62068;-78
2021/12/09 04:39:36;;;;;;;;;2.00;1.00;;;;;9.48;68.82;100300.81;5044503;28;61797;-77
2021/12/09 04:42:02;;;;;;;;;0.00;0.00;;;;;9.46;68.87;100292.91;5044432;28;61709;-78
2021/12/09 04:44:27;;;;;;;;;1.50;0.00;;;;;9.50;69.37;100300.06;5043229;28;61958;-78
2021/12/09 04:46:53;;;;;;;;;1.00;0.00;;;;;9.52;69.50;100297.50;5042675;28;62543;-78
2021/12/09 04:49:18;;;;;;;;;1.00;1.00;;;;;9.48;68.88;100287.72;5044441;28;62360;-78
2021/12/09 04:51:44;;;;;;;;;4.25;1.75;;;;;9.47;68.88;100294.72;5044018;28;61814;-78
2021/12/09 04:54:09;;;;;;;;;0.00;0.00;;;;;9.50;69.66;100289.56;5044482;28;61897;-78
2021/12/09 04:56:35;;;;;;;;;2.25;1.00;;;;;9.48;69.25;100295.59;5043223;28;61960;-78
2021/12/09 04:59:02;;;;;;;;;4.00;0.75;;;;;9.49;69.17;100302.59;5061052;28;62091;-78
2021/12/09 05:01:28;;;;;;;;;3.00;1.00;;;;;9.55;69.24;100303.75;5064114;28;61894;-78
2021/12/09 05:03:54;;;;;;;;;2.25;0.25;;;;;9.58;68.93;100303.88;5064400;28;61813;-78
2021/12/09 05:06:19;;;;;;;;;4.00;1.50;;;;;9.53;68.97;100299.28;5063585;28;63032;-78
2021/12/09 05:08:48;;;;;;;;;1.00;1.00;;;;;9.52;68.71;100292.25;5064295;28;61928;-78
2021/12/09 05:11:32;;;;;;;;;0.50;0.00;;;;;9.50;69.08;100291.31;5064450;28;61793;-78
2021/12/09 05:13:58;;;;;;;;;1.00;1.00;;;;;9.51;69.28;100294.00;5064332;28;61830;-78
2021/12/09 05:16:24;;;;;;;;;0.00;0.00;;;;;9.53;69.02;100292.34;5063515;28;61872;-78
2021/12/09 05:18:56;;;;;;;;;3.00;0.00;;;;;9.51;68.81;100288.75;5064043;28;61737;-78
2021/12/09 05:21:21;;;;;;;;;1.00;1.00;;;;;9.51;69.07;100295.69;5064020;28;62096;-78
2021/12/09 05:23:47;;;;;;;;;0.75;0.75;;;;;9.55;68.86;100305.47;5064235;28;61683;-78
2021/12/09 05:26:14;;;;;;;;;6.00;0.50;;;;;9.56;68.92;100299.41;5062546;28;61874;-78
2021/12/09 05:28:40;;;;;;;;;0.00;0.00;;;;;9.58;68.81;100303.88;5062635;28;61902;-78
2021/12/09 05:33:50;;;;;;;;;2.50;0.50;;;;;9.56;68.33;100302.03;5064245;28;61919;-78
2021/12/09 05:36:17;;;;;;;;;1.00;1.00;;;;;9.56;68.91;100297.69;5061708;28;63796;-78
2021/12/09 05:38:43;;;;;;;;;0.00;0.00;;;;;9.58;68.57;100309.13;5063556;28;61854;-78
2021/12/09 05:41:09;;;;;;;;;0.00;0.00;;;;;9.61;68.10;100313.59;5063883;28;62035;-78
2021/12/09 05:43:36;;;;;;;;;5.25;1.00;;;;;9.56;68.97;100320.38;5063925;28;62176;-78
2021/12/09 05:46:02;;;;;;;;;3.25;1.00;;;;;9.59;68.97;100317.88;5061632;28;64919;-77
2021/12/09 05:48:31;;;;;;;;;5.25;1.25;;;;;9.55;68.85;100308.97;5063711;28;61683;-78
2021/12/09 05:50:58;;;;;;;;;0.00;0.00;;;;;9.54;68.84;100312.44;5063282;28;62173;-78
2021/12/09 05:53:24;;;;;;;;;5.75;1.00;;;;;9.57;68.50;100323.03;5063880;28;61753;-77
2021/12/09 05:55:49;;;;;;;;;0.00;0.00;;;;;9.61;68.34;100324.06;5062685;28;62752;-78
2021/12/09 05:58:17;;;;;;;;;0.75;0.75;;;;;9.64;68.64;100326.84;5061884;28;62077;-78
2021/12/09 06:00:44;;;;;;;;;3.00;1.00;;;;;9.57;68.68;100324.78;5062781;28;62043;-78
2021/12/09 06:03:09;;;;;;;;;2.75;1.00;;;;;9.61;68.48;100332.81;5063381;28;61831;-78
2021/12/09 06:05:36;;;;;;;;;2.00;1.00;;;;;9.61;69.00;100324.06;5077766;28;63720;-78
2021/12/09 06:08:03;;;;;;;;;3.00;3.00;;;;;9.61;68.67;100322.34;5063038;28;61922;-77
2021/12/09 06:10:29;;;;;;;;;5.00;0.00;;;;;9.56;68.79;100328.25;5063220;28;61759;-79
2021/12/09 06:12:54;;;;;;;;;4.25;1.00;;;;;9.59;68.51;100326.63;5061778;28;61933;-77
2021/12/09 06:15:20;;;;;;;;;1.25;1.25;;;;;9.52;68.81;100324.59;5062163;28;61709;-76
2021/12/09 06:17:45;;;;;;;;;4.25;1.00;;;;;9.49;69.23;100329.72;5062908;28;61881;-76
2021/12/09 06:20:11;;;;;;;;;5.25;1.25;;;;;9.42;68.70;100340.75;5062634;28;61908;-77
2021/12/09 06:22:36;;;;;;;;;4.25;1.75;;;;;9.35;68.72;100344.84;5062985;28;61912;-76
2021/12/09 06:25:03;;;;;;;;;2.00;1.00;;;;;9.24;69.10;100340.88;5062109;28;61933;-77
2021/12/09 06:27:29;;;;;;;;;1.00;1.00;;;;;9.28;69.55;100336.69;5062489;28;61938;-77
2021/12/09 06:29:55;;;;;;;;;2.00;2.00;;;;;9.29;69.67;100338.47;5061832;28;61900;-77
2021/12/09 06:32:20;;;;;;;;;1.75;1.75;;;;;9.27;69.35;100341.00;5062928;28;61779;-76
2021/12/09 06:34:45;;;;;;;;;1.00;1.00;;;;;9.26;68.94;100343.56;5061564;28;61869;-76
2021/12/09 06:37:11;;;;;;;;;4.75;2.00;;;;;9.24;69.79;100346.13;5062568;28;61939;-76
2021/12/09 06:39:37;;;;;;;;;5.25;2.00;;;;;9.23;69.99;100352.16;5060948;28;61791;-77
2021/12/09 06:42:03;;;;;;;;;4.25;1.00;;;;;9.20;69.71;100349.44;5061276;28;61763;-76
2021/12/09 06:44:28;;;;;;;;;2.00;1.00;;;;;9.17;69.99;100347.59;5061864;28;61762;-76
2021/12/09 06:46:55;;;;;;;;;4.00;1.75;;;;;9.15;69.53;100350.97;5061895;28;61726;-76
2021/12/09 06:49:22;;;;;;;;;2.00;1.00;;;;;9.12;69.60;100362.19;5061794;28;61726;-76
2021/12/09 06:51:49;;;;;;;;;2.00;2.00;;;;;9.06;69.66;100356.72;5060305;28;61850;-76
2021/12/09 06:54:14;;;;;;;;;3.25;2.00;;;;;9.08;69.81;100364.63;5061507;28;61773;-76
2021/12/09 06:56:40;;;;;;;;;2.25;2.00;;;;;9.10;69.65;100356.00;5061468;28;61754;-75
2021/12/09 06:59:05;;;;;;;;;7.25;1.75;;;;;9.09;69.63;100354.22;5077164;28;61774;-76
2021/12/09 07:01:31;;;;;;;;;4.50;4.00;;;;;9.18;69.20;100357.22;5082440;27;62024;-76
2021/12/09 07:03:56;;;;;;;;;4.00;1.00;;;;;9.14;69.07;100371.00;5081294;28;61920;-76
2021/12/09 07:06:22;;;;;;;;;3.00;3.00;;;;;9.14;69.24;100365.78;5082514;27;61838;-75
2021/12/09 07:08:49;;;;;;;;;4.00;2.00;;;;;9.03;69.62;100360.91;5080883;28;61844;-74
2021/12/09 07:11:18;;;;;;;;;4.00;1.25;;;;;9.02;69.62;100365.25;5082318;27;61809;-76
2021/12/09 07:13:44;;;;;;;;;4.75;1.00;;;;;9.01;69.42;100360.84;5081522;28;62903;-78
2021/12/09 07:16:10;;;;;;;;;1.50;1.50;;;;;8.97;69.59;100370.25;5081713;28;61774;-78
2021/12/09 07:18:36;;;;;;;;;3.75;3.75;;;;;8.93;69.85;100363.13;5065899;28;61936;-75
2021/12/09 07:21:03;;;;;;;;;2.00;2.00;;;;;8.93;70.01;100367.44;5062101;28;62144;-75
2021/12/09 07:23:28;;;;;;;;;2.00;2.00;;;;;8.94;70.18;100375.38;5059879;28;64973;-75
2021/12/09 07:25:54;;;;;;;;;6.75;5.25;;;;;8.92;69.99;100384.00;5061362;28;61829;-75
2021/12/09 07:28:19;;;;;;;;;10.00;5.00;;;;;8.89;69.67;100373.38;5061721;28;61876;-75
2021/12/09 07:30:45;;;;;;;;;7.00;5.50;;;;;8.95;69.80;100378.88;5077169;28;61817;-75
2021/12/09 07:33:10;;;;;;;;;8.25;6.00;;;;;8.96;69.83;100370.22;5061090;28;62735;-76
2021/12/09 07:35:36;;;;;;;;;8.50;4.00;;;;;8.94;69.85;100362.28;5061685;28;62032;-78
2021/12/09 07:38:03;;;;;;;;;9.25;4.00;;;;;8.98;69.84;100358.97;5055726;28;62002;-75
2021/12/09 07:40:30;;;;;;;;;12.50;5.00;;;;;8.97;69.50;100367.66;5057378;28;61991;-75
2021/12/09 07:42:56;;;;;;;;;9.00;5.00;;;;;8.95;69.63;100361.44;5060038;28;63011;-74
2021/12/09 07:45:23;;;;;;;;;9.50;3.50;;;;;9.04;69.91;100373.16;5059690;28;62161;-74
2021/12/09 07:47:49;;;;;;;;;7.00;5.00;;;;;9.04;69.88;100370.53;5058201;28;61969;-74
2021/12/09 07:50:18;;;;;;;;;4.75;3.75;;;;;9.08;70.24;100375.09;5059990;28;61823;-75
2021/12/09 07:52:48;;;;;;;;;8.50;5.00;;;;;9.16;70.17;100369.34;5062683;28;62719;-75
2021/12/09 07:55:15;;;;;;;;;5.25;4.25;;;;;9.18;69.83;100372.03;5063794;28;61919;-75
2021/12/09 07:57:41;;;;;;;;;9.00;5.75;;;;;9.18;69.82;100369.44;5067688;28;62130;-75
2021/12/09 08:00:12;;;;;;;;;4.25;2.00;;;;;9.14;69.05;100368.38;5084893;27;62178;-75
2021/12/09 08:02:39;;;;;;;;;6.50;2.00;;;;;9.19;69.68;100368.56;5084108;27;62028;-74
2021/12/09 08:05:05;;;;;;;;;6.25;3.25;;;;;9.17;68.80;100367.66;5083452;28;62550;-74
2021/12/09 08:07:31;;;;;;;;;3.75;3.75;;;;;9.22;68.90;100379.22;5084676;27;62076;-75
2021/12/09 08:09:56;;;;;;;;;4.25;4.25;;;;;9.16;68.89;100386.78;5084834;27;61686;-75
2021/12/09 08:12:22;;;;;;;;;6.00;5.00;;;;;9.23;68.59;100390.56;5083784;27;61828;-75
2021/12/09 08:14:47;;;;;;;;;6.75;4.75;;;;;9.30;68.96;100398.78;5084204;27;61988;-75
2021/12/09 08:20:00;;;;;;;;;10.75;6.00;;;;;9.37;68.86;100386.81;5084550;28;61984;-75
2021/12/09 08:22:25;;;;;;;;;7.00;5.25;;;;;9.34;68.22;100384.06;5083995;28;61785;-75
2021/12/09 08:24:55;;;;;;;;;6.00;4.50;;;;;9.30;68.17;100375.19;5083255;27;62060;-75
2021/12/09 08:27:21;;;;;;;;;6.00;3.75;;;;;9.32;68.10;100385.72;5082237;27;61777;-76
2021/12/09 08:29:46;;;;;;;;;5.00;2.25;;;;;9.30;68.47;100372.56;5083067;27;61869;-75
2021/12/09 08:32:12;;;;;;;;;4.50;3.25;;;;;9.32;68.08;100373.53;5082829;28;62382;-75
2021/12/09 08:34:37;;;;;;;;;3.75;3.50;;;;;9.28;68.10;100378.59;5083348;28;62511;-75
2021/12/09 08:37:03;;;;;;;;;12.00;9.00;;;;;9.40;67.80;100384.31;5083676;27;61766;-75
2021/12/09 08:39:28;;;;;;;;;5.00;5.00;;;;;9.50;68.39;100383.00;5083532;27;61886;-76
2021/12/09 08:41:54;;;;;;;;;5.25;4.25;;;;;9.50;67.53;100380.38;5084116;27;61862;-75
2021/12/09 08:44:19;;;;;;;;;5.25;5.25;;;;;9.52;68.02;100378.72;5084220;27;61888;-75
2021/12/09 08:46:45;;;;;;;;;6.00;4.50;;;;;9.61;67.62;100392.19;5082908;28;62096;-75
2021/12/09 08:49:10;;;;;;;;;4.75;4.75;;;;;9.64;67.65;100387.09;5084355;27;61936;-75
2021/12/09 08:51:37;;;;;;;;;6.00;3.50;;;;;9.67;66.83;100394.19;5082115;28;64723;-75
2021/12/09 08:54:04;;;;;;;;;2.00;2.00;;;;;9.78;67.21;100403.38;5084617;27;61891;-75
2021/12/09 08:56:29;;;;;;;;;6.00;2.50;;;;;9.77;67.20;100402.50;5082444;28;62016;-75
2021/12/09 08:58:55;;;;;;;;;6.75;2.75;;;;;9.85;67.65;100401.91;5080451;27;61719;-76
2021/12/09 09:01:20;;;;;;;;;9.25;4.75;;;;;9.94;67.48;100407.50;5082550;28;61913;-75
2021/12/09 09:03:46;;;;;;;;;6.75;2.00;;;;;10.00;66.98;100415.63;5084094;28;61837;-76
2021/12/09 09:06:12;;;;;;;;;8.00;1.75;;;;;9.96;66.83;100419.88;5084353;27;62120;-75
2021/12/09 09:08:37;;;;;;;;;6.50;3.00;;;;;9.90;66.97;100416.13;5084357;27;62008;-76
2021/12/09 09:11:03;;;;;;;;;6.50;2.00;;;;;10.01;66.90;100423.56;5083709;28;61739;-75
2021/12/09 09:13:29;;;;;;;;;5.50;1.00;;;;;9.96;66.40;100426.81;5083676;27;61861;-74
2021/12/09 09:15:54;;;;;;;;;2.25;1.25;;;;;10.02;67.01;100445.44;5084089;28;61970;-75
2021/12/09 09:18:20;;;;;;;;;2.00;2.00;;;;;10.14;67.08;100434.56;5082695;27;61892;-75
2021/12/09 09:20:47;;;;;;;;;5.00;5.00;;;;;10.15;66.27;100434.59;5081878;28;63466;-75
2021/12/09 09:23:16;;;;;;;;;4.75;2.00;;;;;10.16;66.39;100438.16;5082500;28;62020;-75
2021/12/09 09:25:42;;;;;;;;;5.75;2.00;;;;;10.16;66.46;100441.66;5083484;27;62190;-74
2021/12/09 09:28:09;;;;;;;;;3.00;3.00;;;;;10.22;66.63;100441.03;5083990;27;62051;-75
2021/12/09 09:30:38;;;;;;;;;3.00;3.00;;;;;10.20;66.08;100438.31;5082814;27;61995;-75
2021/12/09 09:33:13;;;;;;;;;3.25;2.00;;;;;10.22;66.58;100441.03;5082614;28;61906;-75
2021/12/09 09:35:40;;;;;;;;;10.50;2.00;;;;;10.31;66.11;100445.78;5082091;28;61784;-75
2021/12/09 09:38:07;;;;;;;;;1.50;1.00;;;;;10.34;66.34;100443.25;5083976;27;61752;-75
2021/12/09 09:40:45;;;;;;;;;2.25;2.25;;;;;10.36;65.94;100446.84;5081727;28;63981;-75
2021/12/09 09:43:30;;;;;;;;;1.75;1.75;;;;;10.35;65.87;100453.81;5083084;27;61946;-75
2021/12/09 09:45:59;;;;;;;;;5.25;2.25;;;;;10.44;66.42;100455.91;5083302;27;61798;-75
2021/12/09 09:48:25;;;;;;;;;4.75;2.25;;;;;10.47;65.99;100465.63;5083696;27;61679;-74
2021/12/09 09:50:50;;;;;;;;;7.00;2.25;;;;;10.52;65.95;100466.69;5082687;27;62580;-75
2021/12/09 09:53:17;;;;;;;;;4.00;3.00;;;;;10.55;66.29;100461.56;5083302;27;61821;-75
2021/12/09 09:55:46;;;;;;;;;5.25;2.50;;;;;10.67;66.15;100469.03;5081817;28;61863;-74
2021/12/09 09:58:12;;;;;;;;;5.50;2.50;;;;;10.73;65.58;100471.88;5079256;27;61716;-75
2021/12/09 10:00:37;;;;;;;;;2.75;2.75;;;;;10.81;66.03;100465.19;5082199;27;61738;-75
2021/12/09 10:03:10;;;;;;;;;5.00;2.75;;;;;10.90;65.48;100467.28;5083231;27;61938;-74
2021/12/09 10:05:38;;;;;;;;;3.00;3.00;;;;;11.07;65.42;100457.41;5081627;28;62238;-75
2021/12/09 10:08:04;;;;;;;;;10.50;5.00;;;;;11.18;65.11;100445.56;5081967;28;61774;-75
2021/12/09 10:10:31;;;;;;;;;7.50;2.50;;;;;11.23;64.61;100444.00;5081057;28;63762;-76
2021/12/09 10:12:59;;;;;;;;;3.00;3.00;;;;;11.28;64.81;100452.06;5082803;27;61976;-76
2021/12/09 10:15:47;;;;;;;;;2.75;1.75;;;;;11.31;64.29;100453.06;5083059;27;61885;-75
2021/12/09 10:18:14;;;;;;;;;3.00;2.00;;;;;11.45;64.53;100446.53;5081980;28;61921;-76
2021/12/09 10:20:53;;;;;;;;;6.00;4.00;;;;;11.59;64.17;100435.63;5080898;28;63671;-76
2021/12/09 10:23:32;;;;;;;;;4.25;2.75;;;;;11.52;64.02;100439.75;5083074;28;62126;-76
2021/12/09 10:26:37;;;;;;;;;6.25;4.00;;;;;11.66;64.10;100437.63;5082641;27;61734;-76
2021/12/09 10:29:20;;;;;;;;;3.00;2.00;;;;;11.66;63.90;100424.50;5043095;28;62122;-76
2021/12/09 10:31:54;;;;;;;;;7.50;2.25;;;;;11.57;63.45;100421.56;5059148;28;62043;-76
2021/12/09 10:34:34;;;;;;;;;6.50;3.00;;;;;11.51;63.80;100421.34;5043313;28;61919;-76
2021/12/09 10:37:06;;;;;;;;;5.50;2.50;;;;;11.54;63.86;100408.28;5059705;28;62168;-75
2021/12/09 10:40:18;;;;;;;;;5.00;5.00;;;;;11.56;63.82;100403.97;5060011;28;61962;-75
2021/12/09 10:42:46;;;;;;;;;2.25;2.25;;;;;11.62;63.42;100404.19;5039361;28;61860;-76
2021/12/09 10:45:14;;;;;;;;;3.50;2.50;;;;;11.80;63.77;100402.19;5042921;28;62078;-75
2021/12/09 10:50:35;;;;;;;;;5.25;4.00;;;;;11.95;63.16;100399.16;5060110;28;61828;-76
2021/12/09 10:55:54;;;;;;;;;5.00;3.00;;;;;12.25;62.94;100398.38;5059252;28;62125;-76
2021/12/09 10:58:23;;;;;;;;;8.25;5.75;;;;;12.32;62.68;100397.72;5059096;28;61938;-76
2021/12/09 11:00:53;;;;;;;;;6.00;2.50;;;;;12.32;61.79;100388.91;5080064;28;62441;-76
2021/12/09 11:03:24;;;;;;;;;8.00;4.75;;;;;12.38;61.91;100394.38;5079267;28;63761;-76
2021/12/09 11:05:59;;;;;;;;;3.00;1.00;;;;;12.36;62.06;100394.34;5080029;28;61885;-76
2021/12/09 11:08:29;;;;;;;;;11.00;2.00;;;;;12.34;61.74;100392.50;5082454;27;61937;-76
2021/12/09 11:11:11;;;;;;;;;3.50;3.25;;;;;12.51;62.20;100393.00;5082242;27;62040;-76
2021/12/09 11:13:46;;;;;;;;;2.50;1.00;;;;;12.61;61.30;100387.19;5081556;28;61963;-76
2021/12/09 11:16:22;;;;;;;;;2.00;2.00;;;;;12.75;60.95;100387.59;5081830;27;61797;-76
2021/12/09 11:18:47;;;;;;;;;2.00;2.00;;;;;12.92;60.75;100385.41;5082365;27;61978;-76
2021/12/09 11:21:21;;;;;;;;;1.00;1.00;;;;;13.09;60.75;100381.53;5080306;28;62058;-77
2021/12/09 11:23:55;;;;;;;;;5.75;2.25;;;;;13.28;60.46;100377.63;5081335;27;61790;-76
2021/12/09 11:26:53;;;;;;;;;2.25;2.25;;;;;13.52;59.80;100374.81;5085186;27;61992;-76
2021/12/09 11:29:37;;;;;;;;;2.00;1.00;;;;;13.64;60.09;100382.13;5085996;27;61923;-77
2021/12/09 11:35:10;;;;;;;;;2.00;0.25;;;;;13.48;58.49;100381.75;5085032;27;61937;-76
2021/12/09 11:40:41;;;;;;;;;7.00;1.75;;;;;13.37;59.04;100384.94;5085415;27;61769;-76
2021/12/09 11:43:10;;;;;;;;;2.50;1.00;;;;;13.34;59.04;100367.28;5084145;28;61790;-76
2021/12/09 11:45:45;;;;;;;;;3.25;1.00;;;;;13.44;59.00;100369.31;5083306;28;63667;-76
2021/12/09 11:48:12;;;;;;;;;1.25;0.00;;;;;13.58;58.63;100366.16;5085125;27;62063;-76
2021/12/09 11:50:41;;;;;;;;;2.25;1.00;;;;;13.58;58.55;100360.88;5084172;28;61824;-76
2021/12/09 11:53:10;;;;;;;;;1.50;1.00;;;;;13.66;58.33;100362.84;5083505;27;62140;-76
2021/12/09 11:55:48;;;;;;;;;6.75;3.75;;;;;13.75;58.62;100358.66;5083114;28;63799;-76